createdAt,value
2023-01-23T00:00:42.892Z,17.10
2023-01-23T00:03:09.349Z,19.40
2023-01-23T00:05:35.763Z,18.13
2023-01-23T00:08:02.215Z,16.52
2023-01-23T00:10:28.598Z,21.85
2023-01-23T00:12:54.980Z,22.17
2023-01-23T00:15:21.337Z,18.15
2023-01-23T00:17:48.452Z,18.92
2023-01-23T00:20:15.212Z,19.00
2023-01-23T00:22:41.739Z,17.73
2023-01-23T00:25:08.281Z,20.90
2023-01-23T00:27:34.670Z,18.70
2023-01-23T00:30:02.191Z,20.45
2023-01-23T00:32:28.872Z,18.30
2023-01-23T00:34:55.371Z,19.70
2023-01-23T00:37:22.030Z,17.17
2023-01-23T00:39:50.896Z,16.38
2023-01-23T00:42:17.849Z,16.83
2023-01-23T00:44:44.282Z,17.02
2023-01-23T00:47:10.734Z,17.33
2023-01-23T00:49:37.120Z,16.02
2023-01-23T00:52:03.526Z,18.40
2023-01-23T00:54:36.601Z,17.52
2023-01-23T00:57:03.252Z,17.27
2023-01-23T00:59:29.760Z,17.52
2023-01-23T01:01:56.149Z,14.60
2023-01-23T01:04:22.592Z,13.27
2023-01-23T01:06:49.005Z,14.85
2023-01-23T01:09:15.390Z,14.35
2023-01-23T01:11:41.863Z,13.65
2023-01-23T01:14:08.347Z,11.88
2023-01-23T01:16:34.887Z,11.73
2023-01-23T01:19:03.000Z,11.65
2023-01-23T01:21:30.259Z,14.82
2023-01-23T01:23:56.788Z,16.23
2023-01-23T01:26:23.288Z,16.90
2023-01-23T01:28:49.756Z,18.15
2023-01-23T01:31:16.533Z,18.75
2023-01-23T01:33:43.958Z,16.55
2023-01-23T01:36:11.152Z,17.35
2023-01-23T01:38:37.601Z,19.92
2023-01-23T01:41:04.396Z,21.13
2023-01-23T01:43:30.921Z,16.65
2023-01-23T01:46:05.882Z,20.15
2023-01-23T01:48:36.752Z,16.95
2023-01-23T01:51:06.635Z,20.73
2023-01-23T01:53:33.558Z,19.50
2023-01-23T01:56:00.597Z,19.33
2023-01-23T01:58:27.574Z,21.50
2023-01-23T02:00:54.369Z,15.98
2023-01-23T02:03:21.206Z,17.95
2023-01-23T02:05:48.836Z,17.27
2023-01-23T02:08:30.325Z,18.85
2023-01-23T02:10:57.943Z,14.77
2023-01-23T02:13:33.472Z,17.65
2023-01-23T02:16:00.925Z,15.05
2023-01-23T02:18:28.448Z,15.45
2023-01-23T02:20:56.592Z,14.75
2023-01-23T02:23:41.898Z,14.40
2023-01-23T02:26:11.324Z,11.35
2023-01-23T02:28:38.018Z,16.08
2023-01-23T02:31:05.080Z,13.93
2023-01-23T02:33:31.525Z,14.02
2023-01-23T02:35:58.267Z,13.63
2023-01-23T02:38:31.597Z,14.23
2023-01-23T02:41:01.344Z,11.15
2023-01-23T02:43:34.665Z,14.95
2023-01-23T02:46:05.020Z,15.35
2023-01-23T02:48:31.485Z,15.70
2023-01-23T02:50:57.992Z,15.40
2023-01-23T02:53:25.723Z,15.23
2023-01-23T02:55:52.337Z,12.55
2023-01-23T02:58:37.597Z,17.35
2023-01-23T03:01:05.303Z,15.18
2023-01-23T03:03:31.781Z,17.08
2023-01-23T03:05:59.338Z,13.82
2023-01-23T03:08:33.406Z,16.98
2023-01-23T03:11:00.579Z,17.60
2023-01-23T03:13:27.069Z,17.17
2023-01-23T03:15:53.525Z,16.55
2023-01-23T03:18:19.984Z,18.75
2023-01-23T03:20:46.465Z,17.48
2023-01-23T03:23:12.862Z,20.23
2023-01-23T03:25:42.886Z,19.92
2023-01-23T03:28:33.203Z,23.10
2023-01-23T03:31:02.691Z,22.00
2023-01-23T03:33:30.416Z,24.57
2023-01-23T03:35:56.803Z,21.05
2023-01-23T03:38:23.202Z,23.13
2023-01-23T03:41:08.905Z,26.15
2023-01-23T03:43:35.253Z,19.17
2023-01-23T03:46:01.673Z,21.70
2023-01-23T03:48:28.150Z,21.40
2023-01-23T03:50:54.588Z,19.05
2023-01-23T03:53:21.377Z,20.58
2023-01-23T03:55:47.859Z,20.40
2023-01-23T03:58:14.252Z,19.38
2023-01-23T04:00:40.636Z,20.58
2023-01-23T04:03:07.105Z,21.00
2023-01-23T04:05:33.759Z,23.15
2023-01-23T04:08:00.314Z,17.48
2023-01-23T04:10:27.296Z,19.33
2023-01-23T04:12:53.696Z,20.90
2023-01-23T04:15:20.128Z,20.80
2023-01-23T04:17:46.541Z,20.35
2023-01-23T04:20:13.612Z,17.50
2023-01-23T04:22:39.980Z,19.25
2023-01-23T04:25:08.948Z,24.30
2023-01-23T04:27:35.335Z,17.98
2023-01-23T04:30:01.784Z,22.70
2023-01-23T04:32:28.211Z,19.98
2023-01-23T04:34:54.628Z,18.45
2023-01-23T04:37:21.036Z,20.40
2023-01-23T04:39:47.489Z,20.73
2023-01-23T04:42:13.892Z,18.90
2023-01-23T04:44:40.325Z,15.80
2023-01-23T04:47:06.705Z,20.83
2023-01-23T04:49:33.164Z,19.67
2023-01-23T04:51:59.653Z,17.35
2023-01-23T04:54:26.165Z,16.40
2023-01-23T04:56:52.611Z,17.80
2023-01-23T04:59:19.079Z,17.02
2023-01-23T05:01:45.500Z,18.75
2023-01-23T05:04:11.938Z,17.90
2023-01-23T05:06:38.794Z,16.83
2023-01-23T05:09:05.635Z,19.40
2023-01-23T05:11:32.046Z,19.60
2023-01-23T05:13:58.456Z,18.45
2023-01-23T05:16:24.920Z,16.70
2023-01-23T05:18:51.327Z,16.67
2023-01-23T05:21:17.795Z,17.15
2023-01-23T05:23:44.174Z,18.25
2023-01-23T05:26:14.317Z,17.13
2023-01-23T05:28:43.609Z,18.20
2023-01-23T05:31:10.210Z,21.65
2023-01-23T05:33:36.687Z,17.60
2023-01-23T05:36:03.441Z,20.13
2023-01-23T05:38:33.621Z,17.23
2023-01-23T05:41:00.152Z,18.48
2023-01-23T05:43:26.593Z,20.85
2023-01-23T05:45:53.097Z,17.15
2023-01-23T05:48:19.550Z,18.27
2023-01-23T05:50:45.973Z,22.80
2023-01-23T05:53:12.380Z,20.98
2023-01-23T05:55:39.341Z,21.15
2023-01-23T05:58:05.809Z,19.33
2023-01-23T06:00:32.263Z,21.38
2023-01-23T06:02:58.638Z,19.85
2023-01-23T06:05:25.244Z,25.38
2023-01-23T06:07:51.672Z,18.80
2023-01-23T06:10:18.563Z,20.20
2023-01-23T06:12:45.159Z,17.73
2023-01-23T06:15:11.852Z,16.17
2023-01-23T06:17:38.381Z,25.13
2023-01-23T06:20:05.042Z,23.15
2023-01-23T06:22:31.632Z,19.45
2023-01-23T06:24:58.122Z,19.23
2023-01-23T06:27:24.559Z,17.25
2023-01-23T06:29:51.070Z,22.35
2023-01-23T06:32:17.494Z,26.02
2023-01-23T06:34:44.089Z,22.00
2023-01-23T06:37:10.536Z,22.15
2023-01-23T06:39:37.578Z,22.17
2023-01-23T06:42:05.990Z,23.00
2023-01-23T06:44:32.500Z,26.30
2023-01-23T06:46:58.933Z,22.55
2023-01-23T06:49:25.336Z,23.75
2023-01-23T06:51:51.723Z,24.98
2023-01-23T06:54:18.218Z,24.83
2023-01-23T06:56:47.227Z,27.50
2023-01-23T06:59:13.663Z,26.88
2023-01-23T07:01:40.228Z,24.60
2023-01-23T07:04:06.834Z,23.83
2023-01-23T07:06:33.236Z,23.80
2023-01-23T07:08:59.752Z,23.45
2023-01-23T07:11:26.779Z,25.58
2023-01-23T07:13:53.726Z,23.40
2023-01-23T07:16:20.378Z,25.30
2023-01-23T07:18:46.857Z,23.98
2023-01-23T07:21:13.425Z,29.67
2023-01-23T07:23:39.826Z,24.73
2023-01-23T07:26:09.702Z,27.60
2023-01-23T07:28:36.913Z,22.25
2023-01-23T07:31:06.094Z,22.75
2023-01-23T07:33:32.652Z,27.92
2023-01-23T07:35:59.137Z,27.40
2023-01-23T07:38:25.949Z,21.92
2023-01-23T07:40:52.563Z,27.42
2023-01-23T07:43:19.299Z,29.52
2023-01-23T07:45:45.712Z,25.90
2023-01-23T07:48:12.301Z,29.50
2023-01-23T07:50:38.698Z,26.90
2023-01-23T07:53:05.854Z,23.60
2023-01-23T07:55:32.295Z,25.45
2023-01-23T07:57:58.590Z,27.65
2023-01-23T08:00:27.123Z,25.08
2023-01-23T08:03:01.206Z,31.27
2023-01-23T08:06:20.791Z,26.85
2023-01-23T08:08:50.720Z,23.87
2023-01-23T08:11:17.270Z,25.10
2023-01-23T08:13:43.731Z,23.42
2023-01-23T08:16:13.741Z,30.90
2023-01-23T08:18:40.399Z,28.98
2023-01-23T08:21:34.323Z,27.95
2023-01-23T08:24:05.029Z,22.77
2023-01-23T08:26:42.134Z,22.40
2023-01-23T08:29:08.527Z,24.10
2023-01-23T08:31:36.204Z,29.42
2023-01-23T08:34:02.672Z,23.75
2023-01-23T08:36:44.848Z,31.40
2023-01-23T08:39:11.271Z,26.35
2023-01-23T08:41:37.829Z,24.00
2023-01-23T08:44:04.338Z,25.85
2023-01-23T08:46:30.742Z,24.00
2023-01-23T08:48:57.148Z,25.85
2023-01-23T08:51:23.643Z,27.20
2023-01-23T08:53:51.717Z,24.88
2023-01-23T08:56:18.933Z,25.38
2023-01-23T08:58:46.046Z,27.67
2023-01-23T09:01:13.604Z,25.63
2023-01-23T09:03:40.106Z,27.98
2023-01-23T09:06:06.875Z,22.00
2023-01-23T09:08:34.697Z,27.42
2023-01-23T09:11:02.472Z,24.73
2023-01-23T09:13:28.874Z,21.77
2023-01-23T09:15:55.323Z,21.30
2023-01-23T09:18:22.862Z,27.33
2023-01-23T09:20:49.496Z,26.13
2023-01-23T09:23:15.839Z,25.75
2023-01-23T09:25:42.282Z,19.65
2023-01-23T09:28:08.810Z,18.92
2023-01-23T09:30:35.340Z,18.23
2023-01-23T09:33:01.747Z,22.98
2023-01-23T09:35:28.100Z,23.08
2023-01-23T09:38:00.475Z,21.10
2023-01-23T09:40:29.508Z,18.60
2023-01-23T09:42:57.351Z,23.10
2023-01-23T09:45:25.426Z,20.50
2023-01-23T09:47:55.925Z,16.00
2023-01-23T09:53:00.017Z,17.55
2023-01-23T09:55:26.411Z,19.25
2023-01-23T10:00:51.097Z,19.20
2023-01-23T10:03:17.767Z,21.02
2023-01-23T10:05:47.272Z,18.45
2023-01-23T10:08:22.320Z,19.40
2023-01-23T10:10:54.447Z,16.60
2023-01-23T10:13:39.455Z,17.13
2023-01-23T10:16:12.403Z,16.40
2023-01-23T10:21:16.458Z,16.83
2023-01-23T10:23:55.800Z,13.50
2023-01-23T10:26:23.708Z,15.10
2023-01-23T10:28:52.986Z,16.35
2023-01-23T10:31:33.948Z,14.20
2023-01-23T10:34:05.340Z,15.35
2023-01-23T10:36:47.795Z,14.27
2023-01-23T10:39:51.887Z,16.65
2023-01-23T10:42:29.641Z,16.77
2023-01-23T10:47:49.909Z,16.42
2023-01-23T10:50:33.304Z,13.80
2023-01-23T10:53:07.111Z,18.98
2023-01-23T10:55:33.500Z,15.38
2023-01-23T10:58:03.247Z,15.05
2023-01-23T11:00:37.112Z,16.65
2023-01-23T11:03:26.314Z,16.38
2023-01-23T11:05:53.879Z,18.73
2023-01-23T11:08:27.747Z,15.77
2023-01-23T11:10:54.909Z,16.88
2023-01-23T11:13:25.439Z,17.13
2023-01-23T11:18:35.598Z,24.63
2023-01-23T11:21:02.163Z,20.42
2023-01-23T11:23:29.392Z,20.98
2023-01-23T11:25:56.560Z,25.17
2023-01-23T11:28:24.969Z,21.63
2023-01-23T11:31:07.916Z,17.25
2023-01-23T11:33:52.094Z,19.92
2023-01-23T11:36:18.471Z,19.38
2023-01-23T11:38:56.803Z,20.45
2023-01-23T11:41:28.794Z,24.45
2023-01-23T11:43:55.350Z,19.15
2023-01-23T11:46:30.957Z,18.60
2023-01-23T11:49:07.063Z,25.13
2023-01-23T11:51:52.348Z,18.77
2023-01-23T11:54:34.326Z,18.13
2023-01-23T11:57:19.251Z,21.50
2023-01-23T12:00:01.291Z,16.85
2023-01-23T12:02:38.415Z,19.20
2023-01-23T12:05:13.923Z,18.55
2023-01-23T12:08:00.574Z,16.83
2023-01-23T12:10:31.148Z,18.98
2023-01-23T12:13:06.745Z,20.45
2023-01-23T12:15:36.145Z,17.55
2023-01-23T12:19:04.083Z,19.05
2023-01-23T12:21:51.710Z,18.30
2023-01-23T12:24:27.497Z,21.38
2023-01-23T12:26:58.458Z,19.10
2023-01-23T12:29:43.740Z,21.42
2023-01-23T12:32:27.658Z,19.05
2023-01-23T12:35:05.282Z,18.42
2023-01-23T12:37:58.063Z,34.97
2023-01-23T12:40:28.040Z,17.35
2023-01-23T12:42:54.419Z,16.42
2023-01-23T12:45:23.383Z,22.08
2023-01-23T12:47:49.963Z,17.23
2023-01-23T12:50:19.618Z,19.55
2023-01-23T12:52:49.179Z,21.75
2023-01-23T12:55:19.178Z,25.30
2023-01-23T12:57:59.897Z,21.65
2023-01-23T13:00:36.476Z,21.17
2023-01-23T13:03:09.058Z,21.38
2023-01-23T13:05:38.578Z,20.80
2023-01-23T13:08:19.069Z,16.83
2023-01-23T13:11:27.690Z,21.27
2023-01-23T13:13:54.457Z,19.08
2023-01-23T13:16:25.231Z,21.67
2023-01-23T13:19:11.903Z,19.42
2023-01-23T13:21:57.162Z,23.33
2023-01-23T13:24:45.949Z,25.20
2023-01-23T13:27:31.376Z,22.10
2023-01-23T13:29:58.905Z,23.15
2023-01-23T13:32:28.542Z,20.73
2023-01-23T13:34:55.215Z,19.70
2023-01-23T13:37:30.855Z,18.70
2023-01-23T13:40:09.526Z,22.45
2023-01-23T13:42:36.095Z,23.08
2023-01-23T13:45:14.718Z,19.27
